Skip Navigation LinksHome page > Weather > Current weather Skip Navigation Links

Current Weather

La Porte Muni, La Porte, Ind.

For information only: do not use for flight planning or navigation.
Latest weather
Observation time Tuesday, October 19, 2021 4:15 PM CDT
Local time Tuesday, October 19, 2021 4:44 PM CDT
Flight conditions Visual Meteorological Conditions
Winds
Wind direction South-Southwest (210°)
Wind speed 13 mph
Wind gusting to 16 mph
Visibility 10 mi.
Sky condition
Ceiling unlimited
Sky clear
Temperature 69°F
Dewpoint 43°F
Altimeter 30.09 in.Hg
Derived measurements
Relative humidity 39%
Density altitude 1413 ft.
Remarks
Fully automated report.
Automated weather observing station with precipitation discriminator.
METAR KPPO 192115Z AUTO 21011G14KT 10SM CLR 21/06 A3009 RMK AO2 T02060061

Settings

Location code

InnerDrive.Weather 4.0.6770.0 Release CLR 4.0.30319.42000
Copyright ©2018 Inner Drive Technology. All rights reserved. Portions Copyright ©1986-2018 David Braverman.

Find weather

Site navigation


Skip Navigation Links

Place info

Page info

PayPal - The safer, easier way to pay online!

Return home.

Copyright ©2021 Inner Drive Technology. Purveyors of fine, hand-crafted computer software. Page printed 2021-10-19T21:44:32 UTC.